Time;durP1;ratioP1;P1;durP2;ratioP2;P2;SDS_P1;SDS_P2;PMS_P1;PMS_P2;Temp;Humidity;BMP_temperature;BMP_pressure;BME280_temperature;BME280_humidity;BME280_pressure;Samples;Min_cycle;Max_cycle;Signal;HPM_P1;HPM_P2
2022/03/31 00:00:19;;;;;;;13.03;8.47;;;;;;;;;;5115116;28;20190;-75
2022/03/31 00:02:45;;;;;;;11.33;7.60;;;;;;;;;;5113000;28;20279;-75
2022/03/31 00:05:11;;;;;;;13.83;8.63;;;;;;;;;;5113439;28;20276;-75
2022/03/31 00:07:47;;;;;;;14.10;8.50;;;;;;;;;;5113432;28;20179;-75
2022/03/31 00:10:14;;;;;;;16.67;7.83;;;;;;;;;;5113355;28;20177;-76
2022/03/31 00:12:40;;;;;;;15.13;8.43;;;;;;;;;;5112877;28;20203;-75
2022/03/31 00:15:06;;;;;;;11.93;8.07;;;;;;;;;;5114535;28;20173;-75
2022/03/31 00:17:32;;;;;;;14.27;8.87;;;;;;;;;;5113512;28;20670;-76
2022/03/31 00:19:58;;;;;;;13.67;8.67;;;;;;;;;;5114469;28;20745;-76
2022/03/31 00:22:24;;;;;;;14.40;9.13;;;;;;;;;;5095823;28;20209;-75
2022/03/31 00:24:50;;;;;;;17.30;8.93;;;;;;;;;;5113043;28;20735;-75
2022/03/31 00:27:16;;;;;;;13.70;8.37;;;;;;;;;;5096141;28;20221;-75
2022/03/31 00:29:42;;;;;;;14.53;9.40;;;;;;;;;;5113229;28;20207;-75
2022/03/31 00:32:08;;;;;;;13.33;8.30;;;;;;;;;;5096212;28;20203;-75
2022/03/31 00:34:35;;;;;;;16.57;9.43;;;;;;;;;;5096421;28;20249;-75
2022/03/31 00:37:01;;;;;;;17.37;9.13;;;;;;;;;;5112798;28;20195;-75
2022/03/31 00:39:31;;;;;;;16.97;9.23;;;;;;;;;;5112675;28;20268;-75
2022/03/31 00:41:58;;;;;;;17.77;9.77;;;;;;;;;;5096213;28;20675;-75
2022/03/31 00:44:24;;;;;;;17.70;9.37;;;;;;;;;;5112675;28;20168;-75
2022/03/31 00:46:52;;;;;;;17.77;9.60;;;;;;;;;;5095143;28;20176;-75
2022/03/31 00:49:19;;;;;;;16.03;9.20;;;;;;;;;;5112643;28;20260;-75
2022/03/31 00:51:46;;;;;;;13.17;8.60;;;;;;;;;;5113766;28;20731;-75
2022/03/31 00:54:13;;;;;;;16.70;9.07;;;;;;;;;;5112382;28;20180;-75
2022/03/31 00:56:41;;;;;;;16.90;10.03;;;;;;;;;;5112712;28;20179;-75
2022/03/31 00:59:08;;;;;;;16.90;9.53;;;;;;;;;;5095862;28;20536;-75
2022/03/31 01:01:34;;;;;;;13.40;9.47;;;;;;;;;;5112168;28;20197;-76
2022/03/31 01:04:01;;;;;;;15.57;8.87;;;;;;;;;;5112149;28;20183;-76
2022/03/31 01:06:27;;;;;;;16.47;9.00;;;;;;;;;;5112306;28;20179;-75
2022/03/31 01:08:53;;;;;;;15.13;9.07;;;;;;;;;;5112008;28;20178;-75
2022/03/31 01:11:20;;;;;;;14.70;9.23;;;;;;;;;;5095309;28;20204;-75
2022/03/31 01:13:46;;;;;;;15.37;9.30;;;;;;;;;;5112143;28;20186;-75
2022/03/31 01:16:12;;;;;;;12.80;8.43;;;;;;;;;;5095304;28;20219;-75
2022/03/31 01:18:39;;;;;;;13.57;8.63;;;;;;;;;;5095118;28;20318;-75
2022/03/31 01:21:05;;;;;;;14.80;8.80;;;;;;;;;;5095188;28;20224;-75
2022/03/31 01:23:32;;;;;;;12.80;8.40;;;;;;;;;;5094874;28;20251;-75
2022/03/31 01:25:58;;;;;;;12.97;8.43;;;;;;;;;;5113058;28;20220;-75
2022/03/31 01:28:24;;;;;;;15.87;9.17;;;;;;;;;;5111989;28;20229;-76
2022/03/31 01:30:50;;;;;;;14.03;8.77;;;;;;;;;;5094944;28;20177;-75
2022/03/31 01:33:17;;;;;;;14.77;8.80;;;;;;;;;;5094873;28;20307;-76
2022/03/31 01:35:43;;;;;;;14.07;8.33;;;;;;;;;;5113103;28;20175;-75
2022/03/31 01:38:09;;;;;;;12.53;8.23;;;;;;;;;;5112084;28;20171;-76
2022/03/31 01:40:36;;;;;;;13.50;7.87;;;;;;;;;;5111643;28;20178;-75
2022/03/31 01:43:02;;;;;;;13.00;7.90;;;;;;;;;;5111314;28;20224;-76
2022/03/31 01:45:29;;;;;;;12.53;8.17;;;;;;;;;;5094788;28;20571;-76
2022/03/31 01:47:55;;;;;;;10.80;7.70;;;;;;;;;;5111471;28;20174;-76
2022/03/31 01:50:21;;;;;;;14.03;8.13;;;;;;;;;;5094541;28;20186;-76
2022/03/31 01:52:47;;;;;;;12.47;8.37;;;;;;;;;;5094424;28;20201;-76
2022/03/31 01:55:13;;;;;;;14.83;8.93;;;;;;;;;;5094714;28;20188;-75
2022/03/31 01:57:39;;;;;;;13.67;8.17;;;;;;;;;;5094465;28;20188;-76
2022/03/31 02:00:06;;;;;;;14.03;9.13;;;;;;;;;;5094643;28;20178;-75
2022/03/31 02:02:32;;;;;;;14.93;8.53;;;;;;;;;;5111065;28;20200;-76
2022/03/31 02:04:58;;;;;;;12.00;8.27;;;;;;;;;;5094280;28;20175;-76
2022/03/31 02:07:25;;;;;;;14.00;8.30;;;;;;;;;;5110919;28;20174;-75
2022/03/31 02:09:51;;;;;;;11.37;8.03;;;;;;;;;;5094782;28;20211;-75
2022/03/31 02:12:17;;;;;;;15.00;8.07;;;;;;;;;;5111294;28;20295;-75
2022/03/31 02:14:43;;;;;;;11.83;8.10;;;;;;;;;;5111425;28;20172;-76
2022/03/31 02:17:09;;;;;;;13.03;8.17;;;;;;;;;;5111236;28;20173;-75
2022/03/31 02:19:36;;;;;;;12.83;8.10;;;;;;;;;;5094334;28;20185;-76
2022/03/31 02:22:02;;;;;;;12.30;8.23;;;;;;;;;;5093966;28;20312;-76
2022/03/31 02:24:30;;;;;;;14.40;8.87;;;;;;;;;;5111181;28;20256;-75
2022/03/31 02:26:56;;;;;;;14.30;8.43;;;;;;;;;;5111342;28;20179;-76
2022/03/31 02:29:22;;;;;;;13.60;8.50;;;;;;;;;;5111121;28;20549;-75
2022/03/31 02:31:48;;;;;;;13.23;8.10;;;;;;;;;;5110935;28;20202;-76
2022/03/31 02:34:15;;;;;;;14.10;8.73;;;;;;;;;;5111064;28;20237;-76
2022/03/31 02:36:41;;;;;;;12.50;7.93;;;;;;;;;;5111305;28;20184;-75
2022/03/31 02:39:08;;;;;;;12.00;7.87;;;;;;;;;;5112119;28;20268;-76
2022/03/31 02:41:35;;;;;;;12.20;8.00;;;;;;;;;;5112625;28;20214;-75
2022/03/31 02:44:02;;;;;;;14.20;8.13;;;;;;;;;;5112067;28;20170;-74
2022/03/31 02:46:28;;;;;;;13.40;8.70;;;;;;;;;;5110976;28;20226;-75
2022/03/31 02:48:57;;;;;;;13.73;8.10;;;;;;;;;;5110740;28;20179;-75
2022/03/31 02:51:23;;;;;;;13.47;8.33;;;;;;;;;;5094262;28;20197;-74
2022/03/31 02:56:34;;;;;;;12.50;8.03;;;;;;;;;;5111435;28;20190;-75
2022/03/31 02:59:00;;;;;;;13.13;8.27;;;;;;;;;;5110758;28;20576;-75
2022/03/31 03:01:29;;;;;;;13.20;8.33;;;;;;;;;;5111681;28;20555;-75
2022/03/31 03:03:56;;;;;;;14.90;8.93;;;;;;;;;;5110609;28;20172;-74
2022/03/31 03:06:22;;;;;;;12.83;8.57;;;;;;;;;;5111107;28;20180;-74
2022/03/31 03:08:48;;;;;;;15.83;8.13;;;;;;;;;;5093966;28;20658;-74
2022/03/31 03:11:15;;;;;;;13.97;8.53;;;;;;;;;;5097527;28;20205;-74
2022/03/31 03:13:42;;;;;;;15.33;8.93;;;;;;;;;;5097363;28;20184;-75
2022/03/31 03:16:08;;;;;;;14.07;8.47;;;;;;;;;;5114386;28;20184;-74
2022/03/31 03:18:38;;;;;;;14.47;8.57;;;;;;;;;;5115538;28;20557;-74
2022/03/31 03:21:04;;;;;;;13.93;8.73;;;;;;;;;;5114190;28;20216;-74
2022/03/31 03:23:34;;;;;;;14.63;8.47;;;;;;;;;;5114123;28;20300;-75
2022/03/31 03:26:01;;;;;;;16.50;9.67;;;;;;;;;;5114170;28;20237;-74
2022/03/31 03:28:27;;;;;;;16.03;9.30;;;;;;;;;;5114146;28;20168;-75
2022/03/31 03:30:53;;;;;;;14.43;8.90;;;;;;;;;;5097111;28;20176;-74
2022/03/31 03:33:19;;;;;;;15.67;9.37;;;;;;;;;;5097076;28;20177;-74
2022/03/31 03:35:45;;;;;;;14.57;9.33;;;;;;;;;;5097001;28;20178;-74
2022/03/31 03:38:11;;;;;;;17.37;9.60;;;;;;;;;;5114008;28;20177;-75
2022/03/31 03:40:38;;;;;;;13.17;8.87;;;;;;;;;;5113852;28;20182;-74
2022/03/31 03:43:04;;;;;;;13.83;8.30;;;;;;;;;;5113549;28;20220;-74
2022/03/31 03:45:30;;;;;;;13.20;8.87;;;;;;;;;;5114016;28;20187;-74
2022/03/31 03:47:58;;;;;;;15.07;8.77;;;;;;;;;;5096832;28;20181;-74
2022/03/31 03:50:25;;;;;;;13.03;8.53;;;;;;;;;;5097204;28;20547;-74
2022/03/31 03:52:51;;;;;;;14.70;8.90;;;;;;;;;;5096639;28;20687;-75
2022/03/31 03:55:17;;;;;;;17.07;9.13;;;;;;;;;;5096727;28;20204;-74
2022/03/31 03:57:43;;;;;;;13.73;8.30;;;;;;;;;;5096620;28;20181;-75
2022/03/31 04:00:10;;;;;;;14.30;9.37;;;;;;;;;;5113587;28;20187;-75
2022/03/31 04:02:36;;;;;;;14.83;9.10;;;;;;;;;;5096327;28;20714;-74
2022/03/31 04:05:03;;;;;;;16.07;10.07;;;;;;;;;;5113549;28;20217;-74
2022/03/31 04:07:29;;;;;;;15.80;9.17;;;;;;;;;;5113636;28;20175;-77
2022/03/31 04:09:55;;;;;;;15.60;10.07;;;;;;;;;;5114625;28;20204;-75
2022/03/31 04:12:22;;;;;;;16.13;9.57;;;;;;;;;;5113077;28;20196;-75
2022/03/31 04:14:49;;;;;;;15.67;9.43;;;;;;;;;;5113419;28;20175;-75
2022/03/31 04:17:15;;;;;;;18.47;9.93;;;;;;;;;;5096307;28;20275;-75
2022/03/31 04:19:42;;;;;;;18.40;10.03;;;;;;;;;;5096412;28;20693;-75
2022/03/31 04:22:08;;;;;;;17.30;10.50;;;;;;;;;;5096012;28;20215;-75
2022/03/31 04:24:34;;;;;;;16.27;10.33;;;;;;;;;;5112995;28;20590;-75
2022/03/31 04:27:00;;;;;;;16.90;10.53;;;;;;;;;;5096044;28;20551;-75
2022/03/31 04:29:27;;;;;;;17.47;10.73;;;;;;;;;;5113210;28;20185;-75
2022/03/31 04:31:53;;;;;;;17.67;10.80;;;;;;;;;;5095741;28;20222;-75
2022/03/31 04:34:20;;;;;;;17.87;10.50;;;;;;;;;;5112873;28;20243;-75
2022/03/31 04:36:46;;;;;;;18.47;11.17;;;;;;;;;;5113108;28;20226;-75
2022/03/31 04:39:13;;;;;;;16.97;10.37;;;;;;;;;;5095777;28;20203;-76
2022/03/31 04:41:40;;;;;;;17.17;9.73;;;;;;;;;;5113856;28;20208;-75
2022/03/31 04:44:06;;;;;;;16.73;11.07;;;;;;;;;;5095860;28;20180;-75
2022/03/31 04:46:33;;;;;;;16.17;10.27;;;;;;;;;;5095709;28;20181;-75
2022/03/31 04:48:59;;;;;;;17.53;11.13;;;;;;;;;;5113852;28;20183;-75
2022/03/31 04:51:25;;;;;;;18.70;11.00;;;;;;;;;;5095730;28;20206;-75
2022/03/31 04:53:51;;;;;;;16.90;10.93;;;;;;;;;;5095458;28;20188;-75
2022/03/31 04:56:17;;;;;;;20.73;11.43;;;;;;;;;;5113892;28;20185;-75
2022/03/31 04:58:44;;;;;;;18.00;11.20;;;;;;;;;;5095515;28;20190;-75
2022/03/31 05:01:11;;;;;;;17.43;11.07;;;;;;;;;;5112353;28;20200;-74
2022/03/31 05:03:37;;;;;;;17.77;11.33;;;;;;;;;;5113212;28;20295;-76
2022/03/31 05:06:04;;;;;;;18.47;11.20;;;;;;;;;;5112104;28;20172;-75
2022/03/31 05:08:30;;;;;;;17.97;10.37;;;;;;;;;;5095183;28;20180;-75
2022/03/31 05:10:56;;;;;;;16.83;10.77;;;;;;;;;;5095273;28;20198;-75
2022/03/31 05:13:22;;;;;;;18.47;11.43;;;;;;;;;;5112111;28;20192;-75
2022/03/31 05:15:48;;;;;;;17.60;10.87;;;;;;;;;;5112227;28;20177;-75
2022/03/31 05:18:14;;;;;;;19.37;11.10;;;;;;;;;;5112120;28;20184;-75
2022/03/31 05:20:42;;;;;;;17.43;11.23;;;;;;;;;;5095071;28;20177;-75
2022/03/31 05:23:08;;;;;;;18.90;11.33;;;;;;;;;;5095092;28;20208;-75
2022/03/31 05:25:34;;;;;;;17.70;11.13;;;;;;;;;;5095254;28;20181;-75
2022/03/31 05:28:00;;;;;;;18.07;11.33;;;;;;;;;;5095030;28;20276;-77
2022/03/31 05:30:26;;;;;;;16.83;11.23;;;;;;;;;;5094968;28;20177;-74
2022/03/31 05:32:53;;;;;;;20.50;11.40;;;;;;;;;;5094199;28;20208;-74
2022/03/31 05:35:20;;;;;;;15.83;11.03;;;;;;;;;;5113039;28;20546;-75
2022/03/31 05:37:46;;;;;;;19.00;12.17;;;;;;;;;;5094801;28;20630;-75
2022/03/31 05:40:13;;;;;;;17.53;11.67;;;;;;;;;;5111640;28;20188;-74
2022/03/31 05:42:40;;;;;;;21.23;12.80;;;;;;;;;;5111311;28;20226;-75
2022/03/31 05:45:07;;;;;;;20.30;12.43;;;;;;;;;;5111640;28;20225;-75
2022/03/31 05:47:33;;;;;;;17.33;12.20;;;;;;;;;;5094881;28;20528;-75
2022/03/31 05:49:59;;;;;;;21.00;12.70;;;;;;;;;;5112709;28;20217;-75
2022/03/31 05:52:25;;;;;;;21.97;12.40;;;;;;;;;;5111386;28;20215;-75
2022/03/31 05:54:51;;;;;;;19.67;12.73;;;;;;;;;;5111609;28;20176;-76
2022/03/31 05:57:18;;;;;;;19.37;12.53;;;;;;;;;;5094759;28;20189;-76
2022/03/31 05:59:44;;;;;;;21.17;12.47;;;;;;;;;;5111460;28;20180;-75
2022/03/31 06:02:11;;;;;;;19.20;12.60;;;;;;;;;;5111367;28;20337;-74
2022/03/31 06:04:37;;;;;;;19.87;12.70;;;;;;;;;;5094476;28;20204;-73
2022/03/31 06:07:04;;;;;;;20.07;12.53;;;;;;;;;;5094523;28;20182;-74
2022/03/31 06:09:30;;;;;;;19.57;12.57;;;;;;;;;;5094748;28;20235;-74
2022/03/31 06:11:56;;;;;;;20.23;12.53;;;;;;;;;;5111373;28;20685;-73
2022/03/31 06:14:22;;;;;;;18.83;12.00;;;;;;;;;;5094331;28;20581;-74
2022/03/31 06:16:49;;;;;;;19.30;11.80;;;;;;;;;;5094316;28;20186;-73
2022/03/31 06:19:15;;;;;;;21.17;13.23;;;;;;;;;;5094352;28;20236;-74
2022/03/31 06:21:42;;;;;;;18.53;11.93;;;;;;;;;;5094437;28;20207;-74
2022/03/31 06:24:08;;;;;;;37.53;17.87;;;;;;;;;;5111208;28;20181;-74
2022/03/31 06:26:34;;;;;;;30.30;19.03;;;;;;;;;;5111265;28;20174;-74
2022/03/31 06:29:01;;;;;;;44.57;25.50;;;;;;;;;;5094478;28;20266;-73
2022/03/31 06:31:27;;;;;;;24.23;15.37;;;;;;;;;;5111004;28;20222;-74
2022/03/31 06:33:53;;;;;;;37.97;23.70;;;;;;;;;;5111149;28;20211;-74
2022/03/31 06:36:20;;;;;;;42.40;18.80;;;;;;;;;;5112349;28;20206;-74
2022/03/31 06:38:46;;;;;;;60.43;27.90;;;;;;;;;;5111213;28;20191;-74
2022/03/31 06:41:17;;;;;;;36.23;23.47;;;;;;;;;;5111406;28;20220;-74
2022/03/31 06:43:45;;;;;;;33.40;20.60;;;;;;;;;;5111288;28;20570;-74
2022/03/31 06:46:11;;;;;;;22.73;14.40;;;;;;;;;;5098280;28;20626;-73
2022/03/31 06:48:38;;;;;;;21.47;13.53;;;;;;;;;;5115241;28;20183;-74
2022/03/31 06:51:08;;;;;;;23.43;15.57;;;;;;;;;;5115177;28;20198;-74
2022/03/31 06:53:36;;;;;;;25.63;15.03;;;;;;;;;;5114803;28;20167;-74
2022/03/31 06:56:03;;;;;;;21.37;13.87;;;;;;;;;;5116143;28;20232;-74
2022/03/31 06:58:30;;;;;;;20.80;14.50;;;;;;;;;;5097907;28;20193;-74
2022/03/31 07:00:56;;;;;;;21.33;13.60;;;;;;;;;;5097808;28;20210;-73
2022/03/31 07:03:23;;;;;;;23.63;13.50;;;;;;;;;;5114699;28;20217;-74
2022/03/31 07:05:49;;;;;;;21.80;13.30;;;;;;;;;;5097813;28;20175;-73
2022/03/31 07:08:15;;;;;;;20.37;12.67;;;;;;;;;;5114861;28;20204;-74
2022/03/31 07:10:41;;;;;;;19.93;12.87;;;;;;;;;;5114864;28;20176;-74
2022/03/31 07:13:07;;;;;;;20.03;13.07;;;;;;;;;;5097547;28;20216;-74
2022/03/31 07:15:33;;;;;;;20.07;12.77;;;;;;;;;;5097406;28;20186;-73
2022/03/31 07:18:03;;;;;;;19.13;12.10;;;;;;;;;;5114793;28;20236;-74
2022/03/31 07:20:30;;;;;;;18.60;12.43;;;;;;;;;;5114503;28;20176;-74
2022/03/31 07:22:56;;;;;;;16.90;11.67;;;;;;;;;;5097249;28;20209;-73
2022/03/31 07:25:22;;;;;;;17.93;11.23;;;;;;;;;;5114253;28;20244;-74
2022/03/31 07:27:49;;;;;;;18.60;11.70;;;;;;;;;;5115411;28;20168;-75
2022/03/31 07:30:16;;;;;;;16.73;10.77;;;;;;;;;;5114035;28;20179;-73
2022/03/31 07:33:02;;;;;;;14.10;10.00;;;;;;;;;;5114086;28;20206;-74
2022/03/31 07:35:29;;;;;;;14.73;10.30;;;;;;;;;;5097549;28;20236;-74
2022/03/31 07:37:56;;;;;;;15.80;10.47;;;;;;;;;;5097153;28;20180;-73
2022/03/31 07:40:22;;;;;;;14.90;9.73;;;;;;;;;;5113910;28;20263;-74
2022/03/31 07:42:49;;;;;;;13.90;9.63;;;;;;;;;;5113692;28;20215;-73
2022/03/31 07:45:15;;;;;;;13.33;8.60;;;;;;;;;;5114139;28;20179;-74
2022/03/31 07:47:42;;;;;;;14.97;9.73;;;;;;;;;;5113668;28;20258;-74
2022/03/31 07:50:09;;;;;;;13.37;9.67;;;;;;;;;;5097108;28;20271;-74
2022/03/31 07:52:35;;;;;;;12.87;9.73;;;;;;;;;;5113591;28;20203;-73
2022/03/31 07:55:02;;;;;;;12.83;8.47;;;;;;;;;;5096431;28;20186;-73
2022/03/31 07:57:28;;;;;;;15.10;9.97;;;;;;;;;;5114885;28;20168;-74
2022/03/31 07:59:54;;;;;;;14.47;9.47;;;;;;;;;;5113579;28;20175;-74
2022/03/31 08:02:21;;;;;;;12.50;8.60;;;;;;;;;;5096595;28;20238;-74
2022/03/31 08:04:47;;;;;;;11.80;8.57;;;;;;;;;;5096778;28;20210;-75
2022/03/31 08:07:13;;;;;;;11.20;8.00;;;;;;;;;;5113340;28;20179;-74
2022/03/31 08:09:39;;;;;;;11.23;8.20;;;;;;;;;;5096483;28;20180;-74
2022/03/31 08:12:06;;;;;;;11.57;8.20;;;;;;;;;;5113068;28;20199;-74
2022/03/31 08:14:33;;;;;;;10.80;7.83;;;;;;;;;;5113722;28;20180;-73
2022/03/31 08:16:59;;;;;;;11.53;7.87;;;;;;;;;;5113451;28;20181;-73
2022/03/31 08:19:27;;;;;;;11.00;8.57;;;;;;;;;;5113387;28;20188;-74
2022/03/31 08:21:53;;;;;;;11.33;8.00;;;;;;;;;;5096567;28;20617;-73
2022/03/31 08:24:19;;;;;;;11.47;7.90;;;;;;;;;;5113025;28;20696;-74
2022/03/31 08:26:46;;;;;;;9.70;7.37;;;;;;;;;;5112922;28;20182;-75
2022/03/31 08:29:12;;;;;;;11.93;8.23;;;;;;;;;;5096357;28;20265;-74
2022/03/31 08:31:38;;;;;;;9.50;7.27;;;;;;;;;;5112814;28;20193;-74
2022/03/31 08:34:05;;;;;;;9.37;7.33;;;;;;;;;;5113021;28;20229;-74
2022/03/31 08:36:31;;;;;;;10.27;7.53;;;;;;;;;;5114056;28;20267;-73
2022/03/31 08:38:58;;;;;;;10.03;7.87;;;;;;;;;;5112837;28;20233;-73
2022/03/31 08:41:24;;;;;;;10.17;7.57;;;;;;;;;;5113049;28;20204;-75
2022/03/31 08:43:51;;;;;;;11.50;7.47;;;;;;;;;;5095897;28;20212;-73
2022/03/31 08:46:17;;;;;;;9.13;6.90;;;;;;;;;;5112741;28;20173;-74
2022/03/31 08:48:43;;;;;;;10.60;7.43;;;;;;;;;;5095689;28;20181;-74
2022/03/31 08:51:09;;;;;;;10.57;7.57;;;;;;;;;;5095914;28;20207;-74
2022/03/31 08:53:35;;;;;;;11.33;7.47;;;;;;;;;;5113629;28;20161;-74
2022/03/31 08:56:02;;;;;;;9.70;7.10;;;;;;;;;;5095672;28;20185;-73
2022/03/31 08:58:28;;;;;;;9.57;7.03;;;;;;;;;;5112489;28;20231;-74
2022/03/31 09:00:54;;;;;;;9.87;7.07;;;;;;;;;;5095762;28;20195;-74
2022/03/31 09:03:20;;;;;;;7.80;6.07;;;;;;;;;;5112166;28;20226;-75
2022/03/31 09:05:54;;;;;;;8.80;7.27;;;;;;;;;;5112377;28;20172;-74
2022/03/31 09:08:20;;;;;;;9.93;6.93;;;;;;;;;;5112879;28;20191;-74
2022/03/31 09:10:48;;;;;;;10.13;6.80;;;;;;;;;;5113202;28;20223;-74
2022/03/31 09:13:19;;;;;;;8.10;6.33;;;;;;;;;;5113274;28;20256;-75
2022/03/31 09:15:51;;;;;;;9.20;6.80;;;;;;;;;;5112340;28;20173;-74
2022/03/31 09:18:19;;;;;;;9.57;7.10;;;;;;;;;;5113252;28;20235;-74
2022/03/31 09:20:46;;;;;;;9.23;7.07;;;;;;;;;;5095365;28;20231;-75
2022/03/31 09:23:16;;;;;;;8.53;6.90;;;;;;;;;;5111834;28;20224;-74
2022/03/31 09:25:42;;;;;;;8.33;6.60;;;;;;;;;;5111977;28;20171;-74
2022/03/31 09:28:15;;;;;;;9.33;6.70;;;;;;;;;;5095011;28;20208;-74
2022/03/31 09:30:52;;;;;;;8.17;6.83;;;;;;;;;;5095149;28;20169;-74
2022/03/31 09:33:30;;;;;;;10.70;7.00;;;;;;;;;;5111648;28;20249;-74
2022/03/31 09:36:00;;;;;;;11.07;8.60;;;;;;;;;;5112947;28;20181;-74
2022/03/31 09:38:26;;;;;;;11.80;9.10;;;;;;;;;;5111812;28;20231;-74
2022/03/31 09:40:52;;;;;;;9.97;7.43;;;;;;;;;;5112790;28;20182;-74
2022/03/31 09:43:19;;;;;;;7.50;6.40;;;;;;;;;;5095161;28;20221;-74
2022/03/31 09:45:45;;;;;;;10.17;7.53;;;;;;;;;;5095381;28;20640;-74
2022/03/31 09:48:18;;;;;;;9.17;6.80;;;;;;;;;;5113323;28;20587;-74
2022/03/31 09:50:45;;;;;;;9.53;7.10;;;;;;;;;;5113287;28;20545;-74
2022/03/31 09:53:18;;;;;;;8.80;7.20;;;;;;;;;;5111740;28;20273;-75
2022/03/31 09:55:45;;;;;;;10.23;7.20;;;;;;;;;;5112354;28;20169;-74
2022/03/31 09:58:21;;;;;;;9.57;7.53;;;;;;;;;;5111921;28;20216;-74
2022/03/31 10:00:47;;;;;;;10.90;7.90;;;;;;;;;;5111898;28;20551;-74
2022/03/31 10:03:15;;;;;;;9.67;7.70;;;;;;;;;;5112902;28;20240;-75
2022/03/31 10:05:42;;;;;;;9.63;7.27;;;;;;;;;;5112213;28;20206;-74
2022/03/31 10:08:10;;;;;;;11.33;8.17;;;;;;;;;;5111912;28;20180;-74
2022/03/31 10:10:37;;;;;;;12.67;11.27;;;;;;;;;;5095379;28;20182;-74
2022/03/31 10:13:24;;;;;;;9.40;7.40;;;;;;;;;;5095035;28;20615;-75
2022/03/31 10:16:03;;;;;;;9.97;7.33;;;;;;;;;;5111347;28;20207;-75
2022/03/31 10:18:30;;;;;;;8.73;7.20;;;;;;;;;;5113155;28;20174;-75
2022/03/31 10:20:57;;;;;;;9.23;7.23;;;;;;;;;;5098949;28;20187;-74
2022/03/31 10:26:08;;;;;;;12.20;7.87;;;;;;;;;;5117342;28;20197;-74
2022/03/31 10:28:34;;;;;;;8.50;6.77;;;;;;;;;;5099014;28;20178;-75
2022/03/31 10:31:01;;;;;;;10.80;8.37;;;;;;;;;;5115973;28;20600;-74
2022/03/31 10:33:37;;;;;;;12.63;8.10;;;;;;;;;;5115535;28;20188;-75
2022/03/31 10:36:18;;;;;;;13.80;9.60;;;;;;;;;;5099479;28;20265;-75
2022/03/31 10:38:54;;;;;;;12.43;9.53;;;;;;;;;;5115874;28;20179;-74
2022/03/31 10:41:27;;;;;;;9.43;6.97;;;;;;;;;;5115397;28;20215;-74
2022/03/31 10:43:56;;;;;;;10.77;7.23;;;;;;;;;;5115597;28;20309;-74
2022/03/31 10:46:23;;;;;;;8.87;7.10;;;;;;;;;;5099254;28;20183;-74
2022/03/31 10:48:53;;;;;;;10.17;8.97;;;;;;;;;;5115396;28;20188;-74
2022/03/31 10:51:30;;;;;;;10.07;7.20;;;;;;;;;;5115368;28;20198;-74
2022/03/31 10:53:56;;;;;;;8.47;6.90;;;;;;;;;;5115304;28;20315;-74
2022/03/31 10:56:26;;;;;;;8.90;7.43;;;;;;;;;;5115260;28;20179;-74
2022/03/31 10:59:00;;;;;;;9.53;6.83;;;;;;;;;;5115353;28;20197;-74
2022/03/31 11:01:34;;;;;;;10.17;8.60;;;;;;;;;;5115526;28;20192;-74
2022/03/31 11:04:02;;;;;;;9.13;7.00;;;;;;;;;;5115336;28;20605;-75
2022/03/31 11:06:29;;;;;;;8.33;7.03;;;;;;;;;;5098350;28;20207;-74
2022/03/31 11:08:55;;;;;;;10.63;7.50;;;;;;;;;;5115265;28;20182;-74
2022/03/31 11:11:22;;;;;;;9.80;7.80;;;;;;;;;;5115230;28;20296;-74
2022/03/31 11:13:48;;;;;;;11.93;7.77;;;;;;;;;;5116082;28;20168;-75
2022/03/31 11:16:15;;;;;;;9.20;7.50;;;;;;;;;;5098343;28;20180;-75
2022/03/31 11:18:41;;;;;;;9.03;6.97;;;;;;;;;;5114899;28;20173;-75
2022/03/31 11:21:07;;;;;;;9.30;7.57;;;;;;;;;;5097960;28;20209;-75
2022/03/31 11:23:33;;;;;;;8.93;6.87;;;;;;;;;;5097985;28;20215;-75
2022/03/31 11:25:59;;;;;;;9.97;7.10;;;;;;;;;;5097740;28;20181;-75
2022/03/31 11:28:29;;;;;;;10.73;8.20;;;;;;;;;;5114644;28;20181;-75
2022/03/31 11:30:56;;;;;;;11.63;8.43;;;;;;;;;;5114146;28;20173;-74
2022/03/31 11:33:23;;;;;;;10.67;8.30;;;;;;;;;;5114366;28;20178;-74
2022/03/31 11:35:52;;;;;;;11.00;8.77;;;;;;;;;;5097634;28;20177;-76
2022/03/31 11:38:19;;;;;;;11.43;8.70;;;;;;;;;;5097874;28;20273;-75
2022/03/31 11:40:49;;;;;;;13.40;10.20;;;;;;;;;;5115450;28;20576;-75
2022/03/31 11:43:16;;;;;;;15.97;11.33;;;;;;;;;;5097802;28;20197;-75
2022/03/31 11:45:45;;;;;;;11.53;8.53;;;;;;;;;;5097730;28;20184;-75
2022/03/31 11:48:11;;;;;;;10.47;8.57;;;;;;;;;;5114314;28;20180;-75
2022/03/31 11:50:39;;;;;;;11.80;8.90;;;;;;;;;;5113480;28;20174;-75
2022/03/31 11:53:25;;;;;;;11.47;9.33;;;;;;;;;;5112366;28;20707;-75
2022/03/31 11:56:21;;;;;;;14.10;10.00;;;;;;;;;;5113383;28;20177;-74
2022/03/31 11:58:48;;;;;;;12.40;8.67;;;;;;;;;;5105175;28;20662;-75
2022/03/31 12:01:16;;;;;;;13.20;10.87;;;;;;;;;;5096655;28;20202;-75
2022/03/31 12:03:42;;;;;;;14.93;10.93;;;;;;;;;;5096551;28;20210;-76
2022/03/31 12:06:09;;;;;;;12.20;9.60;;;;;;;;;;5113633;28;20242;-76
2022/03/31 12:08:35;;;;;;;12.67;9.67;;;;;;;;;;5114649;28;20226;-75
2022/03/31 12:11:01;;;;;;;13.40;10.03;;;;;;;;;;5114585;28;20192;-75
2022/03/31 12:13:28;;;;;;;13.20;10.00;;;;;;;;;;5096352;28;20176;-75
2022/03/31 12:16:02;;;;;;;12.53;9.53;;;;;;;;;;5113568;28;20205;-75
2022/03/31 12:18:30;;;;;;;14.43;10.30;;;;;;;;;;5096354;28;20208;-75
2022/03/31 12:21:00;;;;;;;15.13;10.30;;;;;;;;;;5096734;28;20209;-74
2022/03/31 12:23:27;;;;;;;12.27;9.17;;;;;;;;;;5114185;28;20206;-75
2022/03/31 12:25:53;;;;;;;14.00;9.20;;;;;;;;;;5114381;28;20247;-76
2022/03/31 12:28:23;;;;;;;12.40;9.50;;;;;;;;;;5113315;28;20173;-75
2022/03/31 12:30:50;;;;;;;12.97;9.77;;;;;;;;;;5112959;28;20170;-76
2022/03/31 12:33:21;;;;;;;12.37;9.87;;;;;;;;;;5112842;28;20181;-76
2022/03/31 12:35:50;;;;;;;12.60;9.10;;;;;;;;;;5113207;28;20199;-75
2022/03/31 12:38:17;;;;;;;12.37;9.17;;;;;;;;;;5096026;28;20180;-76
2022/03/31 12:40:43;;;;;;;12.53;9.23;;;;;;;;;;5095780;28;20642;-75
2022/03/31 12:43:10;;;;;;;12.27;8.97;;;;;;;;;;5094980;28;20215;-76
2022/03/31 12:45:36;;;;;;;12.03;8.57;;;;;;;;;;5112921;28;20171;-75
2022/03/31 12:48:11;;;;;;;12.70;9.20;;;;;;;;;;5112736;28;20209;-75
2022/03/31 12:50:39;;;;;;;11.33;9.27;;;;;;;;;;5095683;28;20179;-75
2022/03/31 12:53:05;;;;;;;12.37;9.07;;;;;;;;;;5112675;28;20178;-75
2022/03/31 12:55:32;;;;;;;13.17;9.50;;;;;;;;;;5112418;28;20659;-75
2022/03/31 12:57:59;;;;;;;11.80;9.10;;;;;;;;;;5096068;28;20188;-75
2022/03/31 13:00:26;;;;;;;12.50;9.43;;;;;;;;;;5112720;28;20630;-76
2022/03/31 13:02:52;;;;;;;12.73;8.80;;;;;;;;;;5112320;28;20209;-76
2022/03/31 13:05:23;;;;;;;14.03;9.07;;;;;;;;;;5112267;28;20177;-76
2022/03/31 13:07:53;;;;;;;12.17;8.77;;;;;;;;;;5095666;28;20234;-76
2022/03/31 13:10:20;;;;;;;13.20;8.93;;;;;;;;;;5112391;28;20170;-75
2022/03/31 13:12:47;;;;;;;13.70;9.80;;;;;;;;;;5111933;28;20197;-76
2022/03/31 13:15:14;;;;;;;13.30;9.20;;;;;;;;;;5112162;28;20182;-75
2022/03/31 13:17:45;;;;;;;12.73;9.47;;;;;;;;;;5095345;28;20277;-75
2022/03/31 13:20:11;;;;;;;14.23;10.27;;;;;;;;;;5111629;28;20220;-76
2022/03/31 13:22:38;;;;;;;13.77;10.17;;;;;;;;;;5111946;28;20240;-75
2022/03/31 13:25:06;;;;;;;15.83;10.23;;;;;;;;;;5112196;28;20172;-77
2022/03/31 13:27:33;;;;;;;13.73;10.23;;;;;;;;;;5113283;28;20251;-75
2022/03/31 13:29:59;;;;;;;15.17;10.97;;;;;;;;;;5111954;28;20174;-75
2022/03/31 13:32:26;;;;;;;13.10;9.43;;;;;;;;;;5111700;28;20195;-75
2022/03/31 13:34:52;;;;;;;14.37;10.20;;;;;;;;;;5111752;28;20172;-75
2022/03/31 13:37:19;;;;;;;13.10;10.27;;;;;;;;;;5095705;28;20179;-75
2022/03/31 13:39:46;;;;;;;13.27;10.23;;;;;;;;;;5095190;28;20631;-76
2022/03/31 13:42:12;;;;;;;14.73;10.80;;;;;;;;;;5111640;28;20225;-75
2022/03/31 13:44:39;;;;;;;16.50;11.40;;;;;;;;;;5110823;28;20247;-76
2022/03/31 13:47:06;;;;;;;14.03;10.90;;;;;;;;;;5110278;28;20233;-75
2022/03/31 13:49:32;;;;;;;17.90;13.20;;;;;;;;;;5110149;28;20249;-75
2022/03/31 13:51:58;;;;;;;17.53;11.83;;;;;;;;;;5110251;28;20281;-75
2022/03/31 13:54:26;;;;;;;16.03;11.83;;;;;;;;;;5094221;28;20633;-75
2022/03/31 13:56:53;;;;;;;15.73;11.10;;;;;;;;;;5111020;28;20189;-76
2022/03/31 14:02:04;;;;;;;15.20;10.20;;;;;;;;;;5112285;28;20194;-75
2022/03/31 14:04:32;;;;;;;13.30;9.87;;;;;;;;;;5112864;28;20194;-75
2022/03/31 14:06:58;;;;;;;14.50;10.60;;;;;;;;;;5112530;28;20175;-76
2022/03/31 14:09:26;;;;;;;15.20;10.43;;;;;;;;;;5111285;28;20294;-75
2022/03/31 14:11:52;;;;;;;15.40;10.93;;;;;;;;;;5094637;28;20199;-76
2022/03/31 14:14:21;;;;;;;18.50;11.50;;;;;;;;;;5111282;28;20211;-75
2022/03/31 14:16:48;;;;;;;15.30;10.53;;;;;;;;;;5094888;28;20188;-76
2022/03/31 14:19:16;;;;;;;16.03;11.47;;;;;;;;;;5094678;28;20176;-75
2022/03/31 14:21:43;;;;;;;14.97;10.93;;;;;;;;;;5112302;28;20279;-76
2022/03/31 14:24:09;;;;;;;16.73;11.67;;;;;;;;;;5112291;28;20578;-76
2022/03/31 14:26:36;;;;;;;16.67;11.43;;;;;;;;;;5112343;28;20160;-75
2022/03/31 14:29:02;;;;;;;15.23;11.17;;;;;;;;;;5111054;28;20183;-75
2022/03/31 14:31:28;;;;;;;15.57;11.23;;;;;;;;;;5094549;28;20197;-76
2022/03/31 14:33:55;;;;;;;16.07;10.13;;;;;;;;;;5094549;28;20188;-76